Aviation Digital Data Service (ADDS)

Output produced by METARs form (1624 UTC 26 May 2016)
found at http://www.aviationweather.gov/adds/metars/
 
KMDT 261556Z 00000KT 9SM BKN200 27/17 A3008 RMK AO2 SLP185 T02670167
KMDT 261456Z 00000KT 9SM FEW120 25/14 A3009 RMK AO2 SLP187 T02500144 58014
KMDT 261356Z 00000KT 7SM SCT120 23/14 A3010 RMK AO2 SLP191 T02280144
KMDT 261256Z 00000KT 6SM HZ FEW120 20/15 A3012 RMK AO2 SLP200 T02000150
KMDT 261156Z 00000KT 6SM HZ SCT150 OVC200 19/14 A3013 RMK AO2 SLP202 T01940139 10194 20150 53012
KMDT 261056Z 12003KT 7SM BKN200 17/13 A3011 RMK AO2 SLP196 T01670128
KMDT 260956Z 00000KT 10SM BKN200 15/12 A3011 RMK AO2 SLP195 T01500122
KMDT 260856Z 00000KT 10SM BKN250 16/12 A3010 RMK AO2 SLP191 T01560122 53004
KMDT 260756Z 00000KT 10SM BKN250 16/13 A3009 RMK AO2 SLP190 T01610128
KMDT 260656Z 09003KT 10SM BKN250 16/12 A3009 RMK AO2 SLP188 T01610122
KMDT 260556Z 00000KT 10SM BKN250 18/12 A3009 RMK AO2 SLP186 T01830122 10250 20178 50000
KMDT 260456Z 09004KT 10SM BKN250 21/11 A3009 RMK AO2 SLP187 T02060111 403000117
KMDT 260356Z 30003KT 10SM BKN250 23/12 A3008 RMK AO2 SLP185 T02280117
KMDT 260256Z 23013KT 10SM BKN250 24/12 A3008 RMK AO2 SLP186 T02440122 50005
KMDT 260156Z 23011KT 10SM SCT250 24/13 A3009 RMK AO2 SLP187 T02440128
KMDT 260056Z 22010KT 10SM FEW250 24/13 A3008 RMK AO2 SLP184 T02440128
KMDT 252356Z 22008KT 10SM SCT250 25/14 A3007 RMK AO2 SLP181 T02500139 10300 20250 55004
KMDT 252256Z 22006KT 10SM SCT250 27/12 A3006 RMK AO2 SLP179 T02670122
KMDT 252156Z 23008KT 10SM BKN250 27/13 A3007 RMK AO2 SLP183 T02670128
KMDT 252056Z 27005KT 10SM BKN250 28/09 A3008 RMK AO2 SLP185 T02830094 58005
KMDT 251956Z 31008KT 10SM SCT250 30/09 A3009 RMK AO2 SLP188 T03000094
KMDT 251856Z 29006KT 10SM BKN250 29/10 A3009 RMK AO2 SLP190 T02890100
KMDT 251756Z 30008KT 10SM BKN200 29/09 A3010 RMK AO2 SLP190 T02890089 10294 20189 58009
KMDT 251656Z 30007KT 10SM CLR 29/10 A3012 RMK AO2 SLP196 T02890100
KMDT 251556Z 31006KT 10SM CLR 27/12 A3013 RMK AO2 SLP200 T02720122
KMDT 251456Z 30008KT 10SM OVC200 26/12 A3012 RMK AO2 SLP199 T02610122 58001 $
KMDT 251356Z 00000KT 10SM BKN200 23/13 A3012 RMK AO2 SLP200 T02330133
KMDT 251256Z 00000KT 10SM CLR 21/13 A3013 RMK AO2 SLP202 T02110128
KMDT 251156Z 00000KT 10SM CLR 19/12 A3013 RMK AO2 SLP201 T01890117 10189 20117 51019
KMDT 251056Z 28004KT 10SM SCT200 16/11 A3011 RMK AO2 SLP196 T01610106
KMDT 250956Z 31005KT 10SM FEW250 14/09 A3008 RMK AO2 SLP187 T01440094
KMDT 250856Z 00000KT 10SM FEW250 12/09 A3007 RMK AO2 SLP182 T01170094 53009
KMDT 250756Z 00000KT 10SM FEW250 13/09 A3006 RMK AO2 SLP177 T01280089
KMDT 250656Z 00000KT 10SM FEW250 15/09 A3005 RMK AO2 SLP174 T01500094
KMDT 250556Z 32006KT 10SM CLR 17/11 A3004 RMK AO2 SLP172 T01670106 10250 20161 51010
KMDT 250456Z 32006KT 10SM FEW250 19/10 A3004 RMK AO2 SLP170 T01890100 402830139